RJNG METAR and TAF | Updated Today

RJNG METAR

Gifu Airport

Observation time: 57 min. ago

RJNG 032147Z 29002KT 9999 FEW025 BKN050 05/04 Q1015 RMK 1CU025 5SC050 A2998

Need help? Read our tutorial on how to read METARs or read the parsed version below.

Gifu Airport (RJNG) METAR

  • Weather conditions on Fri, 03 Dec 2021 21:47:00 +0000 (57 min. ago):
  • Present conditions: Dry
  • Clouds: A few at 762 meters; broken sky at 1524 meters
  • Visibility: Greater than 10 km
  • Wind: 290 degrees at 2 knots
  • Temperature: 5 celsius
  • Dew point: 4 celsius
  • Pressure: 1015 millibars
  • Remarks: 1CU025 5SC050 A2998


Useful to know...

  • Codes: RJNG/QGU
  • Airport elevation: 128ft
  • Municipality: Gifu
  • Country: Japan
  • Continent: Asia